• Join FlightAware (Why Join?)
  • Login
  • US Flag 
05:41AM EDT


 

Airport Tracker/Info


-or-


 

Live Flight TrackerFlight Track Log ✈ UAL256 ✈ 27-Apr-2013 ✈ KSFO - KDEN

Flight Track Log - Related Links

Times and Time Zones

All times are in EDT time to prevent confusion due to time zone crossing. See the UAL256 flight status page for this flight to view local times or setup timezone preferences in your user account.

Time Position Orientation Groundspeed Altitude Reporting Facility
EDT Latitude Longitude Course Direction KTS MPH feet Rate Location/Type
05:43PM 37.6500 -122.3333 72° East 186 214 1,800  Level Northern Cal TRACON
05:44PM 37.7000 -122.2667 47° Northeast 245 282 4,000 1,980 Climbing Northern Cal TRACON
05:44PM 37.7050 -122.2544 63° Northeast 235 270 4,300 2,640 Climbing Oakland Center
05:45PM 37.6459 -122.4490 119° Southeast  Level FlightAware Approximate
05:45PM 37.7392 -122.1653 64° Northeast 286 329 7,400  Level Oakland Center
05:46PM 37.6341 -122.3135 72° East  Level FlightAware Approximate
05:46PM 37.7689 -122.0686 69° East 295 339 10,300  Level Oakland Center
05:47PM 37.6716 -122.1719 62° Northeast  Level FlightAware Approximate
05:47PM 37.8014 -121.9578 70° East 335 386 11,400  Level Oakland Center
05:48PM 37.7238 -122.0381 72° East  Level FlightAware Approximate
05:48PM 37.8378 -121.8311 70° East 383 441 13,800  Level Oakland Center
05:49PM 37.8753 -121.7019 70° East 391 450 15,900 1,800 Climbing Oakland Center
05:50PM 37.9228 -121.5369 70° East 416 479 17,500 1,500 Climbing Oakland Center
05:51PM 37.9639 -121.3956 70° East 442 509 19,000 1,560 Climbing Oakland Center
05:52PM 38.0056 -121.2472 70° East 450 518 20,700 1,560 Climbing Oakland Center
05:53PM 38.0478 -121.0956 70° East 456 525 22,200 1,320 Climbing Oakland Center
05:54PM 38.0833 -120.9378 74° East 470 541 23,500 1,200 Climbing Oakland Center
05:55PM 38.1058 -120.7747 80° East 473 544 24,700 960 Climbing Oakland Center
05:56PM 38.1283 -120.6089 80° East 478 550 25,500 1,020 Climbing Oakland Center
05:57PM 38.1556 -120.4064 80° East 486 559 26,800 1,200 Climbing Oakland Center
05:58PM 38.1764 -120.2397 81° East 482 555 28,000 1,320 Climbing Oakland Center
06:00PM 38.2000 -120.0747 80° East 477 549 29,500 1,260 Climbing Oakland Center
06:01PM 38.2200 -119.9114 81° East 470 541 30,600 1,020 Climbing Oakland Center
06:02PM 38.2406 -119.7489 81° East 467 537 31,700 1,020 Climbing Oakland Center
06:03PM 38.2600 -119.5869 81° East 465 535 32,800 1,080 Climbing Oakland Center
06:04PM 38.2781 -119.4322 81° East 463 533 33,900 1,020 Climbing Oakland Center
06:05PM 38.3022 -119.2411 81° East 461 531 34,900 540 Climbing Oakland Center
06:06PM 38.3164 -119.0808 84° East 458 527 35,000  Climbing Oakland Center
06:07PM 38.3206 -118.9200 88° East 457 526 35,000  Level Oakland Center
06:08PM 38.3267 -118.7578 87° East 461 531 35,000  Level Oakland Center
06:09PM 38.3308 -118.5989 88° East 453 521 35,000  Level Oakland Center
06:10PM 38.3364 -118.4375 87° East 456 525 35,000  Level Oakland Center
06:11PM 38.3397 -118.2761 88° East 458 527 35,000 360 Level Oakland Center
06:12PM 38.3442 -118.0914 88° East 456 525 35,800 720 Climbing Oakland Center
06:13PM 38.3483 -117.9314 88° East 451 519 36,500 540 Climbing Oakland Center
06:14PM 38.3519 -117.7728 88° East 448 516 37,000 240 Climbing Oakland Center
06:15PM 38.3547 -117.6142 89° East 447 514 37,000  Level Oakland Center
06:16PM 38.3586 -117.4553 88° East 446 513 37,000  Level Oakland Center
06:17PM 38.3608 -117.3256 89° East 449 517 37,000  Level Salt Lake Center
06:17PM 38.3611 -117.2953 89° East 447 514 37,000  Level Oakland Center
06:18PM 38.3642 -117.1317 89° East 452 520 37,000  Level Oakland Center
06:19PM 38.3661 -117.0033 89° East 447 514 37,000  Level Salt Lake Center
06:20PM 38.3681 -116.8158 89° East 440 506 37,000  Level Oakland Center
06:21PM 38.3708 -116.6589 89° East 440 506 37,000  Level Oakland Center
06:22PM 38.3722 -116.5042 89° East 437 503 37,000  Level Oakland Center
06:23PM 38.3742 -116.3478 89° East 440 506 37,000  Level Oakland Center
06:24PM 38.3750 -116.2222 89° East 442 509 37,000  Level Salt Lake Center
06:24PM 38.3750 -116.1917 90° East 441 507 37,000  Level Oakland Center
06:25PM 38.3758 -116.0658 89° East 441 507 37,000  Level Salt Lake Center
06:26PM 38.3775 -115.9106 89° East 439 505 37,000  Level Salt Lake Center
06:27PM 38.3783 -115.7550 90° East 441 507 37,000  Level Salt Lake Center
06:28PM 38.3789 -115.5994 90° East 438 504 37,000  Level Salt Lake Center
06:29PM 38.3792 -115.4431 90° East 442 509 37,000  Level Salt Lake Center
06:30PM 38.3803 -115.2594 90° East 445 512 37,000 -60 Level Salt Lake Center
06:31PM 38.3808 -115.1033 90° East 443 510 36,900 -900 Descending Salt Lake Center
06:32PM 38.3806 -114.9478 90° East 440 506 35,200 -1,740 Descending Salt Lake Center
06:33PM 38.3794 -114.7911 90° East 442 509 33,400 -1,140 Descending Salt Lake Center
06:34PM 38.3794 -114.6292 90° East 454 522 33,000 -240 Descending Salt Lake Center
06:35PM 38.3781 -114.4678 91° East 456 525 33,000  Level Salt Lake Center
06:36PM 38.3775 -114.3069 90° East 455 524 33,000  Level Salt Lake Center
06:37PM 38.3769 -114.1461 90° East 454 522 33,000  Level Salt Lake Center
06:38PM 38.3747 -113.9844 91° East 455 524 33,000  Level Salt Lake Center
06:39PM 38.3728 -113.8231 91° East 455 524 33,000  Level Salt Lake Center
06:40PM 38.3714 -113.6619 91° East 454 522 33,000  Level Salt Lake Center
06:41PM 38.3681 -113.4686 91° East 455 524 33,000  Level Salt Lake Center
06:42PM 38.3653 -113.3078 91° East 453 521 33,000  Level Salt Lake Center
06:43PM 38.3636 -113.1450 91° East 457 526 33,000  Level Salt Lake Center
06:44PM 38.3608 -112.9825 91° East 458 527 33,000  Level Salt Lake Center
06:45PM 38.3681 -112.8203 87° East 455 524 33,000  Level Salt Lake Center
06:46PM 38.3728 -112.6592 88° East 455 524 33,000  Level Salt Lake Center
06:47PM 38.3778 -112.4983 88° East 454 522 33,000  Level Salt Lake Center
06:48PM 38.3825 -112.3378 88° East 453 521 33,000  Level Salt Lake Center
06:49PM 38.3869 -112.1764 88° East 453 521 33,000  Level Salt Lake Center
06:50PM 38.3917 -112.0156 88° East 453 521 33,000  Level Salt Lake Center
06:51PM 38.3956 -111.8550 88° East 454 522 33,000  Level Salt Lake Center
06:52PM 38.4003 -111.6944 88° East 453 521 33,000  Level Salt Lake Center
06:53PM 38.4033 -111.5333 89° East 455 524 33,000  Level Salt Lake Center
06:54PM 38.4069 -111.3731 88° East 453 521 33,000  Level Salt Lake Center
06:55PM 38.4103 -111.1800 89° East 454 522 33,000  Level Salt Lake Center
06:56PM 38.4131 -111.0208 89° East 451 519 33,000  Level Salt Lake Center
06:57PM 38.4144 -110.8547 89° East 456 525 33,000  Level Salt Lake Center
06:58PM 38.4181 -110.7028 88° East 452 520 33,000  Level Salt Lake Center
06:59PM 38.4211 -110.5231 89° East 452 520 33,000  Level Denver Center
07:00PM 38.4244 -110.3694 88° East 453 521 33,000  Level Denver Center
07:01PM 38.4269 -110.1917 89° East 452 520 33,000  Level Denver Center
07:03PM 38.4303 -110.0403 88° East 448 516 33,000  Level Denver Center
07:04PM 38.4331 -109.8883 89° East 450 518 33,000  Level Denver Center
07:05PM 38.4358 -109.7361 89° East 448 516 33,000  Level Denver Center
07:06PM 38.4381 -109.5600 89° East 446 513 33,000  Level Denver Center
07:07PM 38.4408 -109.3850 89° East 444 511 33,000  Level Denver Center
07:08PM 38.4431 -109.2322 89° East 447 514 33,000  Level Denver Center
07:09PM 38.4453 -109.0561 89° East 446 513 33,000  Level Denver Center
07:10PM 38.4464 -108.9056 89° East 445 512 33,000  Level Denver Center
07:11PM 38.4475 -108.7544 89° East 445 512 33,000  Level Denver Center
07:12PM 38.4494 -108.5786 89° East 446 513 33,000  Level Denver Center
07:13PM 38.4500 -108.3772 90° East 446 513 33,000  Level Denver Center
07:14PM 38.4511 -108.2219 89° East 455 524 33,000  Level Denver Center
07:15PM 38.4678 -108.0736 82° East 447 514 33,000  Level Denver Center
07:16PM 38.5267 -107.9133 65° Northeast 447 514 33,000  Level Denver Center
07:17PM 38.5769 -107.7778 65° Northeast 443 510 33,000  Level Denver Center
07:18PM 38.6356 -107.6181 65° Northeast 445 512 33,000  Level Denver Center
07:19PM 38.6853 -107.4825 65° Northeast 442 509 33,000  Level Denver Center
07:20PM 38.7525 -107.3000 65° Northeast 444 511 33,000  Level Denver Center
07:21PM 38.8039 -107.1589 65° Northeast 443 510 33,000  Level Denver Center
07:22PM 38.8558 -107.0158 65° Northeast 443 510 33,000  Level Denver Center
07:23PM 38.9092 -106.8681 65° Northeast 440 506 33,000  Level Denver Center
07:24PM 38.9653 -106.7089 66° East 439 505 33,000 -360 Level Denver Center
07:25PM 39.0150 -106.5717 65° Northeast 443 510 32,300 -840 Descending Denver Center
07:27PM 39.0628 -106.4347 66° East 441 507 31,300 -1,080 Descending Denver Center
07:28PM 39.1208 -106.2722 65° Northeast 447 514 30,200 -1,500 Descending Denver Center
07:29PM 39.1736 -106.1206 66° East 456 525 28,300 -2,820 Descending Denver Center
07:30PM 39.2261 -105.9683 66° East 459 528 24,500 -2,400 Descending Denver Center
07:31PM 39.2817 -105.8103 66° East 479 551 23,500 -1,140 Descending Denver Center
07:32PM 39.3322 -105.6622 66° East 445 512 22,200 -1,740 Descending Denver Center
07:33PM 39.3756 -105.5383 66° East 379 436 20,000 -2,160 Descending Denver Center
07:34PM 39.3989 -105.4033 77° East 348 400 17,800 -1,860 Descending Denver Center
07:35PM 39.4047 -105.2833 86° East 334 384 16,300 -1,620 Descending Denver Center
07:36PM 39.4100 -105.1656 87° East 331 381 14,600 -1,320 Descending Denver Center
07:37PM 39.4147 -105.0417 87° East 326 375 13,700 -840 Descending Denver Center
07:38PM 39.4197 -104.9417 86° East 286 329 13,000 -360 Descending Denver Center
07:39PM 39.4278 -104.8481 84° East 267 307 13,000 -540 Level Denver Center
07:40PM 39.4500 -104.7589 72° East 252 290 12,000 -960 Descending Denver Center
07:41PM 39.5114 -104.7261 22° Northeast 236 272 11,100 -900 Descending Denver Center
07:42PM 39.5708 -104.6967 21° North 229 264 10,200 -960 Descending Denver Center
07:43PM 39.6294 -104.6683 20° North 211 243 9,200 -1,080 Descending Denver Center
07:44PM 39.6864 -104.6625 North 207 238 8,100 -960 Descending Denver Center
07:45PM 39.7306 -104.6617 North 166 191 7,300 -840 Descending Denver Center